createdAt,value
2023-03-23T16:00:07.310Z,15.60
2023-03-23T16:03:01.965Z,15.60
2023-03-23T16:05:49.374Z,15.50
2023-03-23T16:08:40.888Z,15.50
2023-03-23T16:11:31.153Z,15.50
2023-03-23T16:14:18.388Z,15.50
2023-03-23T16:17:05.994Z,15.50
2023-03-23T16:19:53.352Z,15.50
2023-03-23T16:22:41.020Z,15.50
2023-03-23T16:25:30.039Z,15.40
2023-03-23T16:28:17.562Z,15.40
2023-03-23T16:31:05.356Z,15.30
2023-03-23T16:33:52.713Z,15.30
2023-03-23T16:36:40.661Z,15.20
2023-03-23T16:39:27.920Z,15.20
2023-03-23T16:42:16.536Z,15.20
2023-03-23T16:45:03.785Z,15.20
2023-03-23T16:47:51.593Z,15.20
2023-03-23T16:50:40.049Z,15.20
2023-03-23T16:53:27.608Z,15.20
2023-03-23T16:56:15.043Z,15.10
2023-03-23T16:59:03.810Z,15.00
2023-03-23T17:01:50.972Z,15.00
2023-03-23T17:04:43.224Z,15.00
2023-03-23T17:07:31.297Z,15.00
2023-03-23T17:10:19.462Z,14.90
2023-03-23T17:13:07.421Z,14.90
2023-03-23T17:15:57.355Z,14.60
2023-03-23T17:18:44.609Z,14.40
2023-03-23T17:21:32.905Z,14.30
2023-03-23T17:24:21.225Z,14.10
2023-03-23T17:27:08.936Z,14.10
2023-03-23T17:29:56.491Z,13.90
2023-03-23T17:32:47.390Z,13.80
2023-03-23T17:35:34.831Z,13.80
2023-03-23T17:38:22.060Z,13.80
2023-03-23T17:41:11.322Z,13.70
2023-03-23T17:43:58.762Z,13.60
2023-03-23T17:46:46.889Z,13.60
2023-03-23T17:49:36.084Z,13.30
2023-03-23T17:52:23.170Z,13.20
2023-03-23T17:55:11.303Z,13.10
2023-03-23T17:57:58.906Z,12.90
2023-03-23T18:00:46.683Z,12.80
2023-03-23T18:03:34.316Z,12.80
2023-03-23T18:06:23.031Z,12.70
2023-03-23T18:09:10.916Z,12.70
2023-03-23T18:11:58.117Z,12.60
2023-03-23T18:14:45.887Z,12.70
2023-03-23T18:17:33.291Z,12.80
2023-03-23T18:20:21.690Z,12.80
2023-03-23T18:23:10.459Z,12.80
2023-03-23T18:25:57.986Z,12.80
2023-03-23T18:28:45.419Z,12.70
2023-03-23T18:31:32.845Z,12.60
2023-03-23T18:34:20.449Z,12.70
2023-03-23T18:37:07.684Z,12.60
2023-03-23T18:39:56.902Z,12.40
2023-03-23T18:42:44.895Z,12.40
2023-03-23T18:45:33.576Z,12.50
2023-03-23T18:48:21.289Z,12.30
2023-03-23T18:51:09.057Z,12.20
2023-03-23T18:53:56.489Z,12.30
2023-03-23T18:56:45.583Z,12.20
2023-03-23T18:59:34.481Z,12.20
2023-03-23T19:02:22.243Z,12.30
2023-03-23T19:05:10.945Z,12.30
2023-03-23T19:07:58.283Z,12.30
2023-03-23T19:10:45.593Z,12.30
2023-03-23T19:13:36.970Z,12.20
2023-03-23T19:16:25.128Z,12.20
2023-03-23T19:19:12.708Z,12.20
2023-03-23T19:22:00.206Z,12.20
2023-03-23T19:24:47.544Z,12.30
2023-03-23T19:30:25.995Z,12.20
2023-03-23T19:33:13.733Z,12.20
2023-03-23T19:36:10.341Z,12.20
2023-03-23T19:39:02.645Z,12.20
2023-03-23T19:41:50.852Z,12.20
2023-03-23T19:44:38.259Z,12.20
2023-03-23T19:47:27.059Z,12.10
2023-03-23T19:50:14.536Z,12.10
2023-03-23T19:53:02.017Z,12.00
2023-03-23T19:55:49.639Z,11.90
2023-03-23T19:58:37.317Z,11.80
2023-03-23T20:01:24.663Z,11.80
2023-03-23T20:04:14.066Z,11.80
2023-03-23T20:07:01.130Z,11.80
2023-03-23T20:09:48.653Z,11.90
2023-03-23T20:12:36.728Z,11.80
2023-03-23T20:15:25.228Z,11.80
2023-03-23T20:18:14.561Z,11.80
2023-03-23T20:21:03.921Z,11.80
2023-03-23T20:23:52.939Z,11.80
2023-03-23T20:26:44.424Z,11.80
2023-03-23T20:29:33.610Z,11.80
2023-03-23T20:32:21.266Z,11.90
2023-03-23T20:35:10.605Z,11.90
2023-03-23T20:38:00.188Z,11.90
2023-03-23T20:40:48.024Z,11.90
2023-03-23T20:43:35.641Z,11.80
2023-03-23T20:46:23.449Z,11.80
2023-03-23T20:49:10.737Z,11.80
2023-03-23T20:51:58.493Z,11.80
2023-03-23T20:54:47.487Z,11.80
2023-03-23T20:57:35.329Z,11.80
2023-03-23T21:00:22.610Z,11.90
2023-03-23T21:03:11.880Z,11.80
2023-03-23T21:05:59.604Z,11.80
2023-03-23T21:08:47.611Z,11.80
2023-03-23T21:11:36.375Z,11.80
2023-03-23T21:14:23.510Z,11.80
2023-03-23T21:17:11.181Z,11.80
2023-03-23T21:19:58.685Z,11.80
2023-03-23T21:22:46.190Z,11.70
2023-03-23T21:25:35.361Z,11.70
2023-03-23T21:28:24.142Z,11.60
2023-03-23T21:31:12.371Z,11.60
2023-03-23T21:34:00.410Z,11.60
2023-03-23T21:36:47.651Z,11.40
2023-03-23T21:39:35.607Z,11.40
2023-03-23T21:42:29.998Z,11.30
2023-03-23T21:45:20.963Z,11.30
2023-03-23T21:48:09.161Z,11.20
2023-03-23T21:50:56.623Z,11.20
2023-03-23T21:53:43.952Z,11.20
2023-03-23T21:56:31.707Z,11.10
2023-03-23T21:59:19.311Z,11.10
2023-03-23T22:02:10.927Z,11.10
2023-03-23T22:04:58.792Z,11.10
2023-03-23T22:07:46.325Z,11.00
2023-03-23T22:10:34.039Z,11.00
2023-03-23T22:13:21.802Z,10.90
2023-03-23T22:16:11.240Z,10.90
2023-03-23T22:19:02.122Z,10.80
2023-03-23T22:21:49.729Z,10.80
2023-03-23T22:24:37.124Z,10.70
2023-03-23T22:27:24.556Z,10.70
2023-03-23T22:30:12.719Z,10.50
2023-03-23T22:33:00.959Z,10.50
2023-03-23T22:35:51.229Z,10.60
2023-03-23T22:38:40.146Z,10.40
2023-03-23T22:41:29.724Z,10.30
2023-03-23T22:44:19.314Z,10.30
2023-03-23T22:47:06.661Z,10.30
2023-03-23T22:49:54.266Z,10.10
2023-03-23T22:52:43.286Z,10.10
2023-03-23T22:55:30.626Z,10.10
2023-03-23T22:58:18.794Z,10.10
2023-03-23T23:01:08.434Z,10.10
2023-03-23T23:03:56.316Z,10.10
2023-03-23T23:06:43.760Z,10.10
2023-03-23T23:09:32.683Z,10.20
2023-03-23T23:12:21.666Z,10.10
2023-03-23T23:15:12.569Z,10.10
2023-03-23T23:18:00.250Z,10.10
2023-03-23T23:20:50.435Z,10.20
2023-03-23T23:23:38.062Z,10.20
2023-03-23T23:26:27.469Z,10.20
2023-03-23T23:29:15.593Z,10.20
2023-03-23T23:32:03.523Z,10.20
2023-03-23T23:34:53.002Z,10.20
2023-03-23T23:37:41.010Z,10.20
2023-03-23T23:40:28.522Z,10.30
2023-03-23T23:43:18.173Z,10.20
2023-03-23T23:46:05.812Z,10.20
2023-03-23T23:48:53.454Z,10.30
2023-03-23T23:51:41.223Z,10.20
2023-03-23T23:54:30.684Z,10.20
2023-03-23T23:57:18.460Z,10.20
